CPY8 weather

Port Carling/Butterfly Lake Seaplane Base
Ontario, Canada

Public forecast

Using degrees Celsius for public forecast. Weather courtesy of forecast.io.

METAR (pilot weather report)

Closest report is Muskoka Airport, 15.6 nm (28.9 km) ESE. Retrieved 2019/05/24 10:00 UTC (19 minutes ago):

CYQA 241000Z AUTO 26006KT 9SM BKN015 OVC022 10/09 A2997 RMK SLP155

TAF (pilot weather forecast)

Forecast is more than 12 hours old.

Closest forecast is Muskoka Airport, 15.6 nm (28.9 km) ESE. Retrieved 2019/05/23 20:00 UTC (14 hours ago):

TAF CYQA 231940Z 2320/2402 20008KT P6SM SCT010 BKN025 OVC040 TEMPO 2320/2321 VRB15G30KT 2SM TSRA BR BKN007 OVC020CB FM232030 28015G25KT P6SM BKN025 FM232300 28012KT P6SM SCT030 RMK FCST BASED ON AUTO OBS. NXT FCST WILL BE ISSUED AT 241145Z